Terminal Aerodrome Forecast
Issued by NWS

Home | Current Version | Previous Version | Text Only | Print | Product List | Glossary On
Versions: 1 2 3 4 5 6 7 8 9 10 11 12 13
000
FTUS45 KRIW 012300
TAFRKS
TAF
KRKS 012320Z 0200/0224 27024G32KT P6SM SCT070
     FM020100 29012G18KT P6SM SCT250
     FM020600 27008KT P6SM SCT080
     FM021300 29011KT P6SM BKN070
     FM021800 29011G21KT P6SM SCT050 BKN070=

USA.gov is the U.S. government's official web portal to all federal, state and local government web resources and services.